Time;durP1;ratioP1;P1;durP2;ratioP2;P2;SDS_P1;SDS_P2;PMS_P1;PMS_P2;Temp;Humidity;BMP_temperature;BMP_pressure;BME280_temperature;BME280_humidity;BME280_pressure;Samples;Min_cycle;Max_cycle;Signal;HPM_P1;HPM_P2
2024/02/22 00:00:11;;;;;;;1.63;1.40;;;9.40;99.90;;;;;;4975721;28;20497;-69
2024/02/22 00:02:39;;;;;;;1.00;0.90;;;9.40;99.90;;;;;;4969858;28;20463;-70
2024/02/22 00:05:06;;;;;;;0.90;0.70;;;9.40;99.90;;;;;;4973421;28;20466;-69
2024/02/22 00:07:33;;;;;;;1.43;0.90;;;9.40;99.90;;;;;;4974514;28;20468;-68
2024/02/22 00:10:01;;;;;;;0.93;0.80;;;9.40;99.90;;;;;;4975997;28;20490;-68
2024/02/22 00:12:27;;;;;;;1.30;1.17;;;9.50;99.90;;;;;;4974615;28;20529;-69
2024/02/22 00:14:56;;;;;;;1.20;1.00;;;9.50;99.90;;;;;;4970517;28;20476;-69
2024/02/22 00:17:23;;;;;;;1.30;1.10;;;9.50;99.90;;;;;;4977218;28;20919;-69
2024/02/22 00:19:50;;;;;;;1.10;1.00;;;9.50;99.90;;;;;;4979384;28;20573;-69
2024/02/22 00:22:17;;;;;;;1.50;1.40;;;9.50;99.90;;;;;;4968698;28;20465;-69
2024/02/22 00:24:44;;;;;;;1.03;0.73;;;9.50;99.90;;;;;;4974922;28;20960;-68
2024/02/22 00:27:10;;;;;;;1.00;0.90;;;9.50;99.90;;;;;;4973526;28;20459;-68
2024/02/22 00:29:37;;;;;;;1.83;1.37;;;9.40;99.90;;;;;;4979402;28;20492;-68
2024/02/22 00:32:05;;;;;;;3.13;1.10;;;9.50;99.90;;;;;;4977245;28;20490;-68
2024/02/22 00:34:32;;;;;;;1.77;1.00;;;9.40;99.90;;;;;;4977179;28;20472;-68
2024/02/22 00:36:59;;;;;;;1.10;0.80;;;9.50;99.90;;;;;;4974613;28;20891;-70
2024/02/22 00:39:26;;;;;;;1.00;0.80;;;9.60;99.90;;;;;;4973617;28;20481;-68
2024/02/22 00:41:52;;;;;;;1.03;0.83;;;9.60;99.90;;;;;;4977726;28;20478;-69
2024/02/22 00:44:19;;;;;;;1.20;0.93;;;9.50;99.90;;;;;;4966283;28;20474;-69
2024/02/22 00:46:46;;;;;;;1.00;0.80;;;9.50;99.90;;;;;;4971746;28;20458;-68
2024/02/22 00:49:14;;;;;;;1.07;0.97;;;9.50;99.90;;;;;;4970671;28;20482;-69
2024/02/22 00:51:40;;;;;;;1.20;1.07;;;9.50;99.90;;;;;;4971240;28;20459;-69
2024/02/22 00:54:07;;;;;;;1.53;1.20;;;9.50;99.90;;;;;;4975573;28;20486;-69
2024/02/22 00:56:34;;;;;;;1.43;1.10;;;9.70;99.90;;;;;;4972436;28;20462;-68
2024/02/22 00:59:02;;;;;;;1.00;0.80;;;9.70;99.90;;;;;;4974671;28;20549;-68
2024/02/22 01:01:29;;;;;;;1.00;0.90;;;9.60;99.90;;;;;;4975378;28;21039;-68
2024/02/22 01:03:55;;;;;;;1.43;1.30;;;9.50;99.90;;;;;;4982269;28;20464;-68
2024/02/22 01:06:23;;;;;;;1.20;1.10;;;9.50;99.90;;;;;;4973615;28;20466;-68
2024/02/22 01:08:50;;;;;;;1.87;0.87;;;9.50;99.90;;;;;;4958908;28;22530;-69
2024/02/22 01:11:17;;;;;;;1.23;1.13;;;9.60;99.90;;;;;;4974774;28;20471;-68
2024/02/22 01:13:44;;;;;;;0.97;0.80;;;9.60;99.90;;;;;;4979711;28;21226;-69
2024/02/22 01:16:10;;;;;;;1.30;1.00;;;9.50;99.90;;;;;;4974492;28;20466;-68
2024/02/22 01:18:37;;;;;;;1.10;1.00;;;9.60;99.90;;;;;;4970597;28;20486;-68
2024/02/22 01:21:04;;;;;;;1.10;0.80;;;9.60;99.90;;;;;;4972582;28;20455;-69
2024/02/22 01:23:32;;;;;;;1.70;1.27;;;9.60;99.90;;;;;;4973329;28;20981;-69
2024/02/22 01:25:59;;;;;;;1.17;1.00;;;9.60;99.90;;;;;;4973858;28;20470;-68
2024/02/22 01:28:25;;;;;;;1.23;1.13;;;9.60;99.90;;;;;;4967722;28;20481;-68
2024/02/22 01:30:52;;;;;;;1.33;1.00;;;9.60;99.90;;;;;;4972507;28;20462;-68
2024/02/22 01:33:19;;;;;;;0.90;0.80;;;9.60;99.90;;;;;;4971544;28;20482;-69
2024/02/22 01:35:46;;;;;;;1.00;0.90;;;9.60;99.90;;;;;;4969646;28;20466;-69
2024/02/22 01:38:13;;;;;;;1.00;0.83;;;9.70;99.90;;;;;;4976283;28;20481;-68
2024/02/22 01:40:41;;;;;;;1.13;1.00;;;9.70;99.90;;;;;;4972699;28;20571;-68
2024/02/22 01:43:07;;;;;;;1.20;0.90;;;9.70;99.90;;;;;;4972765;28;20884;-70
2024/02/22 01:45:34;;;;;;;1.20;1.10;;;9.60;99.90;;;;;;4969945;28;20466;-69
2024/02/22 01:48:02;;;;;;;1.10;0.90;;;9.70;99.90;;;;;;4971033;28;20970;-70
2024/02/22 01:50:29;;;;;;;0.90;0.73;;;9.80;99.90;;;;;;4967892;28;20474;-69
2024/02/22 01:52:56;;;;;;;1.00;0.83;;;9.80;99.90;;;;;;4976307;28;20497;-70
2024/02/22 01:55:25;;;;;;;1.07;0.80;;;9.80;99.90;;;;;;4973534;28;20470;-70
2024/02/22 01:57:54;;;;;;;1.20;1.10;;;9.80;99.90;;;;;;4969551;28;20459;-68
2024/02/22 02:00:23;;;;;;;2.27;1.00;;;9.80;99.90;;;;;;4967879;28;21195;-69
2024/02/22 02:02:50;;;;;;;1.40;1.20;;;9.80;99.90;;;;;;4965348;28;20462;-69
2024/02/22 02:05:17;;;;;;;1.30;0.90;;;9.80;99.90;;;;;;4965685;28;20463;-69
2024/02/22 02:07:44;;;;;;;0.90;0.70;;;9.80;99.90;;;;;;4975416;28;20494;-69
2024/02/22 02:10:10;;;;;;;1.00;0.90;;;9.70;99.90;;;;;;4974785;28;20474;-70
2024/02/22 02:12:38;;;;;;;1.27;1.00;;;9.80;99.90;;;;;;4975637;28;20490;-69
2024/02/22 02:15:07;;;;;;;1.83;0.80;;;9.80;99.90;;;;;;4968306;28;20491;-69
2024/02/22 02:17:34;;;;;;;1.00;0.80;;;9.90;99.90;;;;;;4969696;28;20458;-69
2024/02/22 02:20:05;;;;;;;1.47;0.97;;;9.80;99.90;;;;;;4973626;28;20996;-69
2024/02/22 02:22:43;;;;;;;1.80;1.20;;;9.90;99.90;;;;;;4978262;28;20469;-69
2024/02/22 02:25:12;;;;;;;1.30;1.00;;;9.80;99.90;;;;;;4977075;28;20474;-70
2024/02/22 02:27:39;;;;;;;1.30;1.00;;;9.80;99.90;;;;;;4978775;28;20475;-70
2024/02/22 02:30:06;;;;;;;1.10;0.83;;;9.80;99.90;;;;;;4971195;28;23613;-69
2024/02/22 02:32:33;;;;;;;1.63;1.17;;;9.90;99.90;;;;;;4975657;28;20996;-69
2024/02/22 02:35:00;;;;;;;1.50;1.40;;;9.80;99.90;;;;;;4978063;28;20467;-69
2024/02/22 02:37:26;;;;;;;0.90;0.70;;;9.90;99.90;;;;;;4979042;28;20590;-70
2024/02/22 02:39:53;;;;;;;1.07;0.97;;;9.90;99.90;;;;;;4979022;28;21600;-69
2024/02/22 02:42:22;;;;;;;1.23;1.03;;;9.80;99.90;;;;;;4975152;28;21668;-69
2024/02/22 02:44:48;;;;;;;1.10;1.00;;;9.80;99.90;;;;;;4975745;28;20463;-69
2024/02/22 02:47:16;;;;;;;1.13;1.03;;;9.90;99.90;;;;;;4974797;28;20619;-69
2024/02/22 02:49:42;;;;;;;1.60;1.10;;;9.90;99.90;;;;;;4969496;28;20559;-70
2024/02/22 02:52:09;;;;;;;1.37;1.13;;;9.90;99.90;;;;;;4972011;28;20467;-68
2024/02/22 02:54:36;;;;;;;1.00;0.90;;;9.80;99.90;;;;;;4977190;28;20493;-69
2024/02/22 02:57:03;;;;;;;1.70;1.30;;;9.90;99.90;;;;;;4977249;28;20791;-69
2024/02/22 02:59:31;;;;;;;1.30;1.20;;;9.80;99.90;;;;;;4978332;28;20474;-69
2024/02/22 03:01:58;;;;;;;1.10;1.00;;;9.90;99.90;;;;;;4976881;28;20463;-69
2024/02/22 03:04:24;;;;;;;1.17;1.07;;;10.00;99.90;;;;;;4977715;28;20627;-69
2024/02/22 03:06:51;;;;;;;1.97;1.77;;;10.00;99.90;;;;;;4973116;28;20466;-69
2024/02/22 03:09:18;;;;;;;1.37;1.20;;;10.00;99.90;;;;;;4970011;28;20549;-68
2024/02/22 03:11:45;;;;;;;0.97;0.83;;;10.00;99.90;;;;;;4972411;28;20513;-68
2024/02/22 03:14:11;;;;;;;1.57;1.33;;;10.00;99.90;;;;;;4977067;28;20489;-68
2024/02/22 03:16:39;;;;;;;1.10;1.00;;;9.90;99.90;;;;;;4971617;28;20461;-69
2024/02/22 03:19:06;;;;;;;1.83;1.33;;;9.90;99.90;;;;;;4974002;28;20489;-69
2024/02/22 03:21:33;;;;;;;1.63;1.30;;;9.90;99.90;;;;;;4972322;28;20462;-69
2024/02/22 03:24:00;;;;;;;1.17;1.07;;;9.90;99.90;;;;;;4980648;28;20458;-69
2024/02/22 03:26:27;;;;;;;1.30;1.10;;;9.90;99.90;;;;;;4975070;28;20462;-68
2024/02/22 03:28:53;;;;;;;1.37;1.20;;;10.00;99.90;;;;;;4978747;28;20479;-69
2024/02/22 03:31:22;;;;;;;1.77;1.07;;;10.10;99.90;;;;;;4975648;28;20832;-69
2024/02/22 03:33:50;;;;;;;1.27;1.07;;;10.10;99.90;;;;;;4976339;28;20590;-69
2024/02/22 03:36:17;;;;;;;1.00;0.90;;;10.20;99.90;;;;;;4975618;28;20839;-69
2024/02/22 03:38:43;;;;;;;3.07;1.93;;;10.10;99.90;;;;;;4980042;28;21106;-69
2024/02/22 03:41:10;;;;;;;2.13;1.87;;;10.10;99.90;;;;;;4972783;28;20470;-69
2024/02/22 03:43:38;;;;;;;1.37;1.27;;;10.10;99.90;;;;;;4975537;28;20470;-69
2024/02/22 03:46:05;;;;;;;1.80;1.40;;;10.10;99.90;;;;;;4976345;28;20869;-69
2024/02/22 03:48:32;;;;;;;0.90;0.80;;;10.20;99.90;;;;;;4974824;28;20486;-69
2024/02/22 03:51:00;;;;;;;1.30;1.17;;;10.10;99.90;;;;;;4976848;28;20501;-70
2024/02/22 03:53:27;;;;;;;0.90;0.70;;;10.10;99.90;;;;;;4975135;28;20490;-69
2024/02/22 03:55:53;;;;;;;1.37;1.27;;;10.10;99.90;;;;;;4973587;28;20467;-70
2024/02/22 03:58:20;;;;;;;1.30;1.20;;;10.20;99.90;;;;;;4977663;28;20473;-69
2024/02/22 04:00:47;;;;;;;1.47;1.23;;;10.20;99.90;;;;;;4971254;28;20522;-69
2024/02/22 04:03:14;;;;;;;2.03;1.90;;;10.20;99.90;;;;;;4978548;28;20817;-69
2024/02/22 04:05:42;;;;;;;1.53;1.30;;;10.30;99.90;;;;;;4969477;28;20948;-68
2024/02/22 04:08:10;;;;;;;1.40;1.30;;;10.20;99.90;;;;;;4975108;28;20572;-69
2024/02/22 04:10:37;;;;;;;2.10;1.30;;;10.30;99.90;;;;;;4970460;28;20470;-69
2024/02/22 04:13:04;;;;;;;1.20;0.97;;;10.30;99.90;;;;;;4969984;28;20471;-70
2024/02/22 04:15:31;;;;;;;1.50;1.30;;;10.40;99.90;;;;;;4968076;28;20525;-69
2024/02/22 04:17:58;;;;;;;1.83;1.17;;;10.40;99.90;;;;;;4961716;28;20467;-70
2024/02/22 04:20:24;;;;;;;1.50;1.40;;;10.40;99.90;;;;;;4971490;28;20548;-69
2024/02/22 04:22:52;;;;;;;1.80;1.43;;;10.40;99.90;;;;;;4971815;28;20489;-69
2024/02/22 04:25:20;;;;;;;1.83;1.30;;;10.40;99.90;;;;;;4971406;28;20458;-69
2024/02/22 04:27:47;;;;;;;2.50;1.53;;;10.40;99.90;;;;;;4969386;28;20492;-69
2024/02/22 04:30:14;;;;;;;1.60;1.40;;;10.20;99.90;;;;;;4966269;28;20458;-70
2024/02/22 04:32:41;;;;;;;1.50;1.30;;;10.30;99.90;;;;;;4975003;28;20939;-69
2024/02/22 04:35:10;;;;;;;1.10;0.97;;;10.30;99.90;;;;;;4971526;28;20486;-70
2024/02/22 04:37:37;;;;;;;1.83;1.33;;;10.30;99.90;;;;;;4974357;28;20472;-70
2024/02/22 04:40:04;;;;;;;2.00;1.80;;;10.30;99.90;;;;;;4972808;28;20489;-70
2024/02/22 04:42:32;;;;;;;1.50;1.40;;;10.30;99.90;;;;;;4975584;28;20474;-70
2024/02/22 04:45:01;;;;;;;1.50;1.10;;;10.30;99.90;;;;;;4972532;28;20450;-68
2024/02/22 04:47:28;;;;;;;1.43;1.30;;;10.30;99.90;;;;;;4976728;28;20463;-69
2024/02/22 04:49:56;;;;;;;2.23;1.70;;;10.40;99.90;;;;;;4968524;28;20522;-69
2024/02/22 04:52:22;;;;;;;1.87;1.33;;;10.40;99.90;;;;;;4980006;28;21011;-69
2024/02/22 04:54:50;;;;;;;2.17;1.27;;;10.40;99.90;;;;;;4979468;28;20489;-69
2024/02/22 04:57:16;;;;;;;2.70;1.87;;;10.40;99.90;;;;;;4984028;28;20476;-68
2024/02/22 04:59:44;;;;;;;1.60;1.50;;;10.40;99.90;;;;;;4976872;28;20482;-70
2024/02/22 05:04:47;;;;;;;4.63;1.40;;;10.50;99.90;;;;;;5031731;23;20880;-67
2024/02/22 05:07:14;;;;;;;2.90;1.90;;;10.60;99.90;;;;;;4981135;28;20462;-69
2024/02/22 05:09:42;;;;;;;1.97;1.67;;;10.60;99.90;;;;;;4979208;28;20839;-69
2024/02/22 05:12:10;;;;;;;2.17;1.93;;;10.50;99.90;;;;;;4971719;28;20458;-69
2024/02/22 05:14:37;;;;;;;1.73;1.63;;;10.50;99.90;;;;;;4972337;28;20481;-69
2024/02/22 05:17:05;;;;;;;1.30;1.17;;;10.40;99.90;;;;;;4979227;28;20458;-69
2024/02/22 05:19:32;;;;;;;1.10;0.90;;;10.40;99.90;;;;;;4978907;28;20516;-68
2024/02/22 05:21:58;;;;;;;1.20;1.00;;;10.50;99.90;;;;;;4983554;28;20462;-67
2024/02/22 05:24:27;;;;;;;1.70;1.17;;;10.50;99.90;;;;;;4979284;28;20456;-69
2024/02/22 05:26:54;;;;;;;1.33;1.17;;;10.60;99.90;;;;;;4977563;28;20585;-69
2024/02/22 05:29:21;;;;;;;1.50;1.13;;;10.60;99.90;;;;;;4975169;28;21134;-69
2024/02/22 05:31:47;;;;;;;1.50;1.23;;;10.50;99.90;;;;;;4979797;28;20473;-70
2024/02/22 05:34:15;;;;;;;1.50;1.20;;;10.50;99.90;;;;;;4984038;28;20577;-67
2024/02/22 05:36:42;;;;;;;2.33;2.13;;;10.60;99.90;;;;;;4974952;28;20466;-68
2024/02/22 05:39:09;;;;;;;3.03;1.83;;;10.50;99.90;;;;;;4979512;28;21051;-67
2024/02/22 05:41:37;;;;;;;2.10;1.47;;;10.60;99.90;;;;;;4975957;28;20845;-67
2024/02/22 05:44:03;;;;;;;1.43;1.30;;;10.60;99.90;;;;;;4978767;28;20548;-69
2024/02/22 05:46:30;;;;;;;2.30;1.73;;;10.60;99.90;;;;;;4985790;28;20462;-67
2024/02/22 05:48:57;;;;;;;1.47;1.27;;;10.50;99.90;;;;;;4986914;28;20489;-69
2024/02/22 05:51:25;;;;;;;2.77;1.73;;;10.60;99.90;;;;;;4982557;28;20454;-70
2024/02/22 05:53:53;;;;;;;2.30;1.87;;;10.60;99.90;;;;;;4984427;28;20486;-68
2024/02/22 05:56:20;;;;;;;1.63;1.37;;;10.60;99.90;;;;;;4988891;28;20532;-69
2024/02/22 05:58:47;;;;;;;2.07;1.90;;;10.60;99.90;;;;;;4982377;28;20485;-69
2024/02/22 06:01:15;;;;;;;1.80;1.70;;;10.60;99.90;;;;;;4979965;28;20465;-68
2024/02/22 06:03:42;;;;;;;2.13;1.97;;;10.60;99.90;;;;;;4985473;28;20494;-67
2024/02/22 06:06:08;;;;;;;2.50;1.67;;;10.60;99.90;;;;;;4991090;28;20469;-69
2024/02/22 06:08:38;;;;;;;2.20;1.93;;;10.50;99.90;;;;;;4979633;28;20482;-69
2024/02/22 06:11:05;;;;;;;5.67;2.53;;;10.60;99.90;;;;;;4983290;28;20545;-69
2024/02/22 06:13:31;;;;;;;3.60;2.10;;;10.60;99.90;;;;;;4990265;28;20462;-68
2024/02/22 06:15:58;;;;;;;1.70;1.60;;;10.60;99.90;;;;;;4982255;28;20790;-68
2024/02/22 06:18:25;;;;;;;4.73;2.73;;;10.60;99.90;;;;;;4982496;28;20485;-68
2024/02/22 06:20:53;;;;;;;3.37;2.40;;;10.70;99.90;;;;;;4978976;28;20457;-68
2024/02/22 06:23:19;;;;;;;4.13;2.93;;;10.70;99.90;;;;;;4984778;28;20477;-69
2024/02/22 06:25:49;;;;;;;2.40;2.20;;;10.80;99.90;;;;;;4981971;28;21300;-68
2024/02/22 06:28:15;;;;;;;4.10;2.70;;;10.70;99.90;;;;;;4982607;28;20482;-68
2024/02/22 06:30:43;;;;;;;3.50;2.57;;;10.70;99.90;;;;;;4982102;28;20474;-68
2024/02/22 06:33:09;;;;;;;2.40;1.73;;;10.70;99.90;;;;;;4980151;28;20460;-68
2024/02/22 06:35:36;;;;;;;2.33;1.83;;;10.70;99.90;;;;;;4981230;28;22580;-69
2024/02/22 06:38:03;;;;;;;4.00;3.00;;;10.70;99.90;;;;;;4983830;28;20473;-68
2024/02/22 06:40:30;;;;;;;2.17;1.97;;;10.70;99.90;;;;;;4988317;28;20481;-69
2024/02/22 06:42:58;;;;;;;2.70;1.90;;;10.70;99.90;;;;;;4978211;28;20758;-68
2024/02/22 06:45:25;;;;;;;2.23;2.03;;;10.70;99.90;;;;;;4982236;28;20469;-68
2024/02/22 06:47:52;;;;;;;3.10;2.60;;;10.80;99.90;;;;;;4988929;28;20465;-68
2024/02/22 06:50:19;;;;;;;3.00;2.77;;;10.70;99.90;;;;;;4986087;28;20471;-69
2024/02/22 06:52:48;;;;;;;3.13;2.07;;;10.80;99.90;;;;;;4994242;28;20477;-69
2024/02/22 06:55:15;;;;;;;3.60;2.63;;;10.80;99.90;;;;;;4984070;28;21052;-68
2024/02/22 06:57:41;;;;;;;3.80;2.87;;;10.70;99.90;;;;;;4980234;28;20467;-68
2024/02/22 07:00:14;;;;;;;3.80;2.60;;;10.80;99.90;;;;;;4981216;28;21347;-69
2024/02/22 07:02:41;;;;;;;3.50;2.80;;;10.80;99.90;;;;;;4983797;28;20469;-68
2024/02/22 07:05:09;;;;;;;1.40;1.30;;;10.90;99.90;;;;;;4980404;28;20493;-69
2024/02/22 07:07:35;;;;;;;3.60;3.00;;;10.80;99.90;;;;;;4983569;28;20466;-68
2024/02/22 07:10:03;;;;;;;2.97;2.27;;;10.80;99.90;;;;;;4983615;28;20490;-68
2024/02/22 07:12:30;;;;;;;3.47;3.17;;;10.70;99.90;;;;;;4986852;28;20466;-68
2024/02/22 07:14:56;;;;;;;3.70;3.40;;;10.70;99.90;;;;;;4985372;28;20485;-68
2024/02/22 07:17:25;;;;;;;2.70;2.07;;;10.70;99.90;;;;;;4980087;28;20486;-68
2024/02/22 07:19:51;;;;;;;3.30;3.00;;;10.80;99.90;;;;;;4979038;28;20486;-68
2024/02/22 07:22:18;;;;;;;4.70;2.60;;;10.80;99.90;;;;;;4981935;28;20462;-68
2024/02/22 07:24:45;;;;;;;3.90;2.63;;;10.90;99.90;;;;;;4981336;28;20458;-68
2024/02/22 07:27:11;;;;;;;3.73;2.93;;;11.10;99.90;;;;;;4977964;28;20459;-68
2024/02/22 07:29:38;;;;;;;3.00;2.30;;;11.10;99.90;;;;;;4984304;28;20834;-68
2024/02/22 07:32:08;;;;;;;2.47;2.23;;;11.10;99.90;;;;;;4981165;28;20465;-68
2024/02/22 07:34:36;;;;;;;5.97;2.70;;;11.40;99.90;;;;;;4984516;28;20571;-68
2024/02/22 07:37:02;;;;;;;3.00;2.50;;;11.60;99.90;;;;;;4980866;28;20521;-68
2024/02/22 07:39:29;;;;;;;3.77;1.83;;;12.00;99.90;;;;;;4981292;28;20482;-69
2024/02/22 07:41:56;;;;;;;3.03;2.13;;;12.30;99.90;;;;;;4979007;28;20492;-68
2024/02/22 07:44:22;;;;;;;3.27;2.43;;;12.50;99.90;;;;;;4978982;28;20451;-68
2024/02/22 07:46:49;;;;;;;2.20;2.00;;;12.50;99.90;;;;;;4977112;28;20465;-68
2024/02/22 07:49:16;;;;;;;2.37;1.33;;;12.50;99.90;;;;;;4982308;28;20493;-68
2024/02/22 07:51:44;;;;;;;1.90;1.60;;;12.50;99.90;;;;;;4983895;28;20463;-68
2024/02/22 07:54:11;;;;;;;1.63;1.10;;;12.40;99.90;;;;;;4984968;28;20462;-67
2024/02/22 07:56:40;;;;;;;2.17;1.73;;;12.40;99.90;;;;;;4981099;28;20985;-67
2024/02/22 07:59:08;;;;;;;2.20;1.77;;;12.40;99.90;;;;;;4979433;28;20532;-68
2024/02/22 08:01:35;;;;;;;3.13;1.97;;;12.40;99.90;;;;;;4985507;28;20470;-67
2024/02/22 08:04:02;;;;;;;2.27;1.90;;;12.40;99.90;;;;;;4986734;28;20470;-68
2024/02/22 08:06:29;;;;;;;2.33;1.80;;;12.60;99.90;;;;;;4981236;28;20648;-67
2024/02/22 08:08:57;;;;;;;2.50;2.00;;;12.40;99.90;;;;;;4982334;28;20484;-67
2024/02/22 08:11:24;;;;;;;1.90;1.80;;;12.40;99.90;;;;;;4980128;28;20458;-67
2024/02/22 08:13:51;;;;;;;1.73;1.57;;;12.00;99.90;;;;;;4983298;28;21003;-68
2024/02/22 08:16:18;;;;;;;1.43;1.20;;;12.00;99.90;;;;;;4969896;28;22119;-68
2024/02/22 08:18:44;;;;;;;2.47;1.77;;;12.10;99.90;;;;;;4978565;28;20482;-69
2024/02/22 08:21:11;;;;;;;2.43;1.40;;;12.10;99.90;;;;;;4977682;28;22289;-68
2024/02/22 08:23:38;;;;;;;1.73;1.43;;;12.20;99.90;;;;;;4968730;28;21040;-68
2024/02/22 08:26:07;;;;;;;2.20;1.33;;;12.20;99.90;;;;;;4975393;28;21185;-68
2024/02/22 08:28:34;;;;;;;1.33;1.20;;;12.00;99.90;;;;;;4977920;28;20490;-68
2024/02/22 08:31:01;;;;;;;1.20;1.10;;;12.10;99.90;;;;;;4980881;28;20470;-68
2024/02/22 08:33:29;;;;;;;1.70;1.20;;;12.10;99.90;;;;;;4985001;28;20459;-68
2024/02/22 08:35:57;;;;;;;1.20;1.03;;;12.20;99.90;;;;;;4979904;28;20497;-68
2024/02/22 08:38:24;;;;;;;1.30;1.07;;;12.10;99.90;;;;;;4980282;28;21130;-68
2024/02/22 08:40:51;;;;;;;1.30;0.83;;;12.10;99.90;;;;;;4974220;28;20469;-68
2024/02/22 08:43:19;;;;;;;1.40;0.93;;;12.00;99.90;;;;;;4974683;28;20466;-69
2024/02/22 08:45:48;;;;;;;0.90;0.70;;;11.90;99.90;;;;;;4981490;28;20473;-68
2024/02/22 08:48:15;;;;;;;1.33;1.20;;;11.90;99.90;;;;;;4978556;28;20494;-69
2024/02/22 08:50:42;;;;;;;1.27;1.10;;;11.80;99.90;;;;;;4983471;28;21498;-68
2024/02/22 08:53:08;;;;;;;1.57;1.10;;;11.80;99.90;;;;;;4984325;28;20473;-67
2024/02/22 08:55:35;;;;;;;1.53;1.10;;;11.90;99.90;;;;;;4977130;28;20722;-69
2024/02/22 08:58:02;;;;;;;1.20;1.10;;;11.80;99.90;;;;;;4980575;28;20474;-68
2024/02/22 09:00:30;;;;;;;1.30;0.97;;;11.90;99.90;;;;;;4982367;28;20844;-68
2024/02/22 09:02:57;;;;;;;1.20;1.00;;;12.00;99.90;;;;;;4977155;28;20465;-68
2024/02/22 09:05:24;;;;;;;1.13;1.03;;;12.00;99.90;;;;;;4980561;28;20460;-68
2024/02/22 09:07:51;;;;;;;1.30;1.03;;;12.00;99.90;;;;;;4982509;28;20553;-68
2024/02/22 09:10:18;;;;;;;1.10;1.00;;;12.30;99.90;;;;;;4979315;28;20469;-68
2024/02/22 09:12:45;;;;;;;1.73;1.07;;;12.40;99.90;;;;;;4979999;28;20803;-68
2024/02/22 09:15:12;;;;;;;1.20;0.90;;;12.40;99.90;;;;;;4983900;28;20856;-68
2024/02/22 09:17:40;;;;;;;1.43;1.03;;;12.50;99.90;;;;;;4983991;28;20481;-68
2024/02/22 09:20:07;;;;;;;1.37;1.17;;;12.70;99.90;;;;;;4982170;28;20859;-68
2024/02/22 09:22:35;;;;;;;1.00;0.80;;;12.90;99.90;;;;;;4985314;28;20469;-68
2024/02/22 09:25:06;;;;;;;1.50;1.13;;;13.00;99.90;;;;;;4981777;28;20537;-67
2024/02/22 09:27:32;;;;;;;1.50;1.13;;;12.90;99.90;;;;;;4985004;28;20462;-69
2024/02/22 09:30:01;;;;;;;1.43;1.00;;;13.00;99.90;;;;;;4984487;28;20576;-69
2024/02/22 09:32:28;;;;;;;0.93;0.80;;;12.70;99.90;;;;;;4984305;28;20458;-69
2024/02/22 09:34:56;;;;;;;1.00;0.73;;;12.80;99.90;;;;;;4987722;28;20485;-69
2024/02/22 09:37:24;;;;;;;0.90;0.80;;;12.60;99.90;;;;;;4978337;28;20466;-68
2024/02/22 09:39:51;;;;;;;1.00;0.80;;;12.50;99.90;;;;;;4975344;28;20593;-68
2024/02/22 09:42:18;;;;;;;1.20;0.80;;;12.40;99.90;;;;;;4984939;28;20790;-68
2024/02/22 09:44:47;;;;;;;1.10;0.87;;;12.40;99.90;;;;;;4985736;28;20470;-68
2024/02/22 09:47:16;;;;;;;1.00;0.80;;;12.60;99.90;;;;;;4988103;28;20475;-69
2024/02/22 09:49:42;;;;;;;0.90;0.70;;;12.50;99.90;;;;;;4985803;28;20591;-68
2024/02/22 09:52:14;;;;;;;0.93;0.80;;;12.50;99.90;;;;;;4982614;28;22913;-68
2024/02/22 09:54:42;;;;;;;1.00;0.80;;;12.50;99.90;;;;;;4986539;28;20529;-68
2024/02/22 09:57:09;;;;;;;1.00;0.70;;;12.60;99.90;;;;;;4986923;28;20988;-68
2024/02/22 09:59:36;;;;;;;0.90;0.60;;;12.70;99.90;;;;;;4984563;28;20981;-68
2024/02/22 10:02:05;;;;;;;1.40;0.90;;;12.80;99.90;;;;;;4983518;28;21154;-68
2024/02/22 10:04:33;;;;;;;0.90;0.70;;;12.70;99.90;;;;;;4979913;28;20474;-68
2024/02/22 10:07:03;;;;;;;1.20;0.90;;;12.60;99.90;;;;;;4982343;28;20489;-68
2024/02/22 10:09:41;;;;;;;2.60;1.30;;;12.40;99.90;;;;;;4983991;28;20492;-68
2024/02/22 10:12:09;;;;;;;1.00;0.80;;;12.40;99.90;;;;;;4978079;28;20461;-68
2024/02/22 10:14:36;;;;;;;1.20;0.80;;;12.40;99.90;;;;;;4981017;28;20832;-68
2024/02/22 10:17:06;;;;;;;1.60;0.90;;;12.80;99.90;;;;;;4982006;28;20983;-68
2024/02/22 10:19:33;;;;;;;1.00;0.80;;;12.90;99.90;;;;;;4979797;28;20474;-68
2024/02/22 10:22:00;;;;;;;3.43;0.90;;;13.00;99.90;;;;;;4979427;28;20458;-68
2024/02/22 10:24:27;;;;;;;1.27;1.00;;;13.10;99.90;;;;;;4979278;28;20810;-67
2024/02/22 10:27:03;;;;;;;1.00;0.83;;;12.80;99.90;;;;;;4980471;28;21075;-67
2024/02/22 10:29:30;;;;;;;1.90;0.90;;;12.70;99.90;;;;;;4982321;28;20803;-67
2024/02/22 10:31:57;;;;;;;0.90;0.70;;;12.60;99.90;;;;;;4982983;28;20938;-67
2024/02/22 10:34:25;;;;;;;1.13;1.00;;;12.50;99.90;;;;;;4981288;28;22118;-67
2024/02/22 10:36:56;;;;;;;1.53;0.93;;;12.40;99.90;;;;;;4982795;28;20876;-67
2024/02/22 10:39:25;;;;;;;1.10;0.80;;;12.60;99.90;;;;;;4979129;28;21001;-68
2024/02/22 10:41:53;;;;;;;1.60;1.00;;;12.70;99.90;;;;;;4983213;28;21419;-68
2024/02/22 10:44:21;;;;;;;1.87;0.80;;;12.80;99.90;;;;;;4974179;28;22401;-68
2024/02/22 10:46:50;;;;;;;0.97;0.73;;;12.80;99.90;;;;;;4981249;28;20454;-68
2024/02/22 10:49:17;;;;;;;1.17;0.80;;;12.80;99.90;;;;;;4985930;28;20482;-68
2024/02/22 10:51:47;;;;;;;0.90;0.70;;;12.90;99.90;;;;;;4984821;28;20470;-69
2024/02/22 10:54:14;;;;;;;0.90;0.70;;;12.80;99.90;;;;;;4981750;28;22039;-68
2024/02/22 10:56:43;;;;;;;1.20;1.10;;;13.00;99.90;;;;;;4985217;28;20482;-68
2024/02/22 10:59:12;;;;;;;1.00;0.70;;;13.00;99.90;;;;;;4993606;28;20485;-69
2024/02/22 11:01:42;;;;;;;5.93;0.90;;;13.20;99.90;;;;;;4989259;28;20461;-68
2024/02/22 11:04:11;;;;;;;0.97;0.67;;;13.50;99.90;;;;;;4990460;28;20830;-68
2024/02/22 11:06:43;;;;;;;5.80;1.10;;;13.60;99.90;;;;;;4982184;28;20480;-68
2024/02/22 11:09:17;;;;;;;0.90;0.70;;;13.60;99.90;;;;;;4980205;28;20568;-68
2024/02/22 11:11:45;;;;;;;0.90;0.70;;;13.50;99.90;;;;;;4983844;28;21089;-68
2024/02/22 11:14:13;;;;;;;0.90;0.70;;;13.40;99.90;;;;;;4991064;28;20534;-68
2024/02/22 11:16:41;;;;;;;1.10;0.70;;;13.60;99.90;;;;;;4981356;28;20490;-68
2024/02/22 11:19:12;;;;;;;0.90;0.70;;;13.50;99.90;;;;;;4989269;28;20582;-68
2024/02/22 11:21:39;;;;;;;0.90;0.60;;;13.40;99.90;;;;;;4979898;28;20536;-68
2024/02/22 11:24:07;;;;;;;2.27;0.90;;;13.40;99.90;;;;;;4977409;28;20463;-68
2024/02/22 11:26:34;;;;;;;1.00;0.87;;;13.40;99.90;;;;;;4987204;28;20455;-68
2024/02/22 11:29:01;;;;;;;1.53;0.97;;;13.60;99.90;;;;;;4986796;28;20482;-68
2024/02/22 11:31:28;;;;;;;1.10;0.80;;;13.60;99.90;;;;;;4984002;28;20802;-68
2024/02/22 11:33:57;;;;;;;1.00;0.80;;;13.90;99.90;;;;;;4981911;28;20461;-68
2024/02/22 11:36:24;;;;;;;1.07;0.70;;;14.10;99.90;;;;;;4979331;28;20481;-68
2024/02/22 11:38:58;;;;;;;1.00;0.70;;;14.20;99.90;;;;;;4978152;28;20552;-69
2024/02/22 11:41:26;;;;;;;1.10;0.80;;;13.90;99.90;;;;;;4978863;28;20453;-69
2024/02/22 11:44:01;;;;;;;0.90;0.70;;;13.90;99.90;;;;;;4989251;28;20466;-69
2024/02/22 11:46:28;;;;;;;1.13;0.70;;;14.10;99.90;;;;;;4981635;28;20467;-68
2024/02/22 11:48:57;;;;;;;1.77;0.80;;;13.80;99.90;;;;;;4981608;28;21202;-68
2024/02/22 11:51:24;;;;;;;0.90;0.60;;;13.90;99.90;;;;;;4983655;28;20515;-68
2024/02/22 11:53:54;;;;;;;1.00;0.70;;;13.90;99.90;;;;;;4985092;28;20635;-68
2024/02/22 11:56:22;;;;;;;0.93;0.70;;;13.90;99.90;;;;;;4987023;28;20600;-68
2024/02/22 11:58:49;;;;;;;0.90;0.70;;;13.80;99.90;;;;;;4982463;28;20493;-68
2024/02/22 12:01:17;;;;;;;0.90;0.60;;;14.00;99.90;;;;;;4983366;28;21130;-68
2024/02/22 12:03:46;;;;;;;1.23;0.80;;;14.00;99.90;;;;;;4979859;28;20478;-68
2024/02/22 12:06:15;;;;;;;1.10;0.70;;;14.10;99.90;;;;;;4979957;28;20462;-68
2024/02/22 12:08:42;;;;;;;2.13;0.70;;;14.10;99.90;;;;;;4983180;28;21052;-67
2024/02/22 12:11:09;;;;;;;0.90;0.70;;;14.20;99.90;;;;;;4980389;28;20469;-67
2024/02/22 12:13:36;;;;;;;1.00;0.70;;;14.10;99.90;;;;;;4984033;28;20470;-67
2024/02/22 12:16:07;;;;;;;1.00;0.70;;;14.00;99.90;;;;;;4987255;28;20880;-67
2024/02/22 12:18:34;;;;;;;4.40;0.80;;;13.90;99.90;;;;;;4989244;28;20541;-69
2024/02/22 12:21:00;;;;;;;1.00;0.77;;;14.10;99.90;;;;;;4977835;28;20544;-69
2024/02/22 12:23:29;;;;;;;1.00;0.80;;;14.50;99.90;;;;;;4981701;28;20484;-69
2024/02/22 12:25:58;;;;;;;1.10;0.70;;;15.10;99.90;;;;;;4977511;28;20458;-69
2024/02/22 12:28:25;;;;;;;0.93;0.60;;;15.80;99.90;;;;;;4985871;28;20856;-68
2024/02/22 12:30:53;;;;;;;1.17;0.87;;;16.70;99.90;;;;;;4979820;28;20465;-69
2024/02/22 12:33:23;;;;;;;1.00;0.70;;;16.90;99.90;;;;;;4975674;28;20469;-67
2024/02/22 12:35:50;;;;;;;1.00;0.70;;;17.60;99.90;;;;;;4973583;28;20525;-67
2024/02/22 12:38:17;;;;;;;0.90;0.70;;;17.90;99.90;;;;;;4979594;28;20805;-68
2024/02/22 12:40:45;;;;;;;0.90;0.60;;;17.10;99.90;;;;;;4982501;28;20471;-68
2024/02/22 12:43:14;;;;;;;0.97;0.70;;;16.50;99.90;;;;;;4978844;28;20877;-68
2024/02/22 12:45:41;;;;;;;2.43;0.90;;;15.90;99.90;;;;;;4980182;28;20474;-68
2024/02/22 12:48:09;;;;;;;4.10;0.80;;;15.80;99.90;;;;;;4985080;28;20837;-69
2024/02/22 12:50:37;;;;;;;3.90;0.80;;;15.30;99.90;;;;;;4984105;28;20999;-68
2024/02/22 12:53:04;;;;;;;1.10;0.70;;;15.10;99.90;;;;;;4981063;28;20473;-70